sensor_id;sensor_type;location;lat;lon;timestamp;P1;durP1;ratioP1;P2;durP2;ratioP2
20067;SDS011;10194;50.824;7.134;2022-07-06T00:01:41;3.42;;;1.63;;
20067;SDS011;10194;50.824;7.134;2022-07-06T00:04:07;2.15;;;1.50;;
20067;SDS011;10194;50.824;7.134;2022-07-06T00:06:33;3.28;;;1.70;;
20067;SDS011;10194;50.824;7.134;2022-07-06T00:08:59;2.17;;;1.73;;
20067;SDS011;10194;50.824;7.134;2022-07-06T00:11:26;4.70;;;1.88;;
20067;SDS011;10194;50.824;7.134;2022-07-06T00:13:52;5.03;;;1.67;;
20067;SDS011;10194;50.824;7.134;2022-07-06T00:16:18;5.78;;;1.98;;
20067;SDS011;10194;50.824;7.134;2022-07-06T00:18:44;4.65;;;1.80;;
20067;SDS011;10194;50.824;7.134;2022-07-06T00:21:10;3.05;;;1.65;;
20067;SDS011;10194;50.824;7.134;2022-07-06T00:23:36;2.13;;;1.80;;
20067;SDS011;10194;50.824;7.134;2022-07-06T00:26:02;4.88;;;2.33;;
20067;SDS011;10194;50.824;7.134;2022-07-06T00:28:28;5.28;;;2.05;;
20067;SDS011;10194;50.824;7.134;2022-07-06T00:30:54;5.70;;;2.10;;
20067;SDS011;10194;50.824;7.134;2022-07-06T00:33:20;3.97;;;1.95;;
20067;SDS011;10194;50.824;7.134;2022-07-06T00:35:46;2.97;;;1.70;;
20067;SDS011;10194;50.824;7.134;2022-07-06T00:38:13;3.38;;;2.08;;
20067;SDS011;10194;50.824;7.134;2022-07-06T00:40:39;2.53;;;2.20;;
20067;SDS011;10194;50.824;7.134;2022-07-06T00:43:05;5.20;;;2.03;;
20067;SDS011;10194;50.824;7.134;2022-07-06T00:45:31;2.83;;;1.95;;
20067;SDS011;10194;50.824;7.134;2022-07-06T00:47:57;7.32;;;1.98;;
20067;SDS011;10194;50.824;7.134;2022-07-06T00:50:22;3.20;;;2.05;;
20067;SDS011;10194;50.824;7.134;2022-07-06T00:52:49;4.45;;;2.00;;
20067;SDS011;10194;50.824;7.134;2022-07-06T00:55:29;4.45;;;1.85;;
20067;SDS011;10194;50.824;7.134;2022-07-06T00:58:00;3.63;;;2.00;;
20067;SDS011;10194;50.824;7.134;2022-07-06T01:00:28;2.97;;;2.35;;
20067;SDS011;10194;50.824;7.134;2022-07-06T01:02:54;2.85;;;2.30;;
20067;SDS011;10194;50.824;7.134;2022-07-06T01:05:20;4.50;;;2.10;;
20067;SDS011;10194;50.824;7.134;2022-07-06T01:07:47;6.22;;;2.25;;
20067;SDS011;10194;50.824;7.134;2022-07-06T01:10:16;4.35;;;2.22;;
20067;SDS011;10194;50.824;7.134;2022-07-06T01:12:44;4.30;;;2.30;;
20067;SDS011;10194;50.824;7.134;2022-07-06T01:15:15;3.15;;;2.45;;
20067;SDS011;10194;50.824;7.134;2022-07-06T01:17:44;6.13;;;2.40;;
20067;SDS011;10194;50.824;7.134;2022-07-06T01:22:38;3.55;;;2.35;;
20067;SDS011;10194;50.824;7.134;2022-07-06T01:25:05;6.55;;;2.50;;
20067;SDS011;10194;50.824;7.134;2022-07-06T01:27:32;5.57;;;2.60;;
20067;SDS011;10194;50.824;7.134;2022-07-06T01:30:03;5.15;;;2.40;;
20067;SDS011;10194;50.824;7.134;2022-07-06T01:32:34;3.20;;;2.33;;
20067;SDS011;10194;50.824;7.134;2022-07-06T01:35:01;3.53;;;2.50;;
20067;SDS011;10194;50.824;7.134;2022-07-06T01:37:27;4.47;;;2.22;;
20067;SDS011;10194;50.824;7.134;2022-07-06T01:39:53;3.03;;;2.10;;
20067;SDS011;10194;50.824;7.134;2022-07-06T01:42:19;4.05;;;2.20;;
20067;SDS011;10194;50.824;7.134;2022-07-06T01:44:44;4.70;;;2.50;;
20067;SDS011;10194;50.824;7.134;2022-07-06T01:47:10;6.03;;;2.53;;
20067;SDS011;10194;50.824;7.134;2022-07-06T01:49:36;4.90;;;2.33;;
20067;SDS011;10194;50.824;7.134;2022-07-06T01:52:02;8.35;;;3.17;;
20067;SDS011;10194;50.824;7.134;2022-07-06T01:54:28;3.40;;;2.30;;
20067;SDS011;10194;50.824;7.134;2022-07-06T01:56:54;4.80;;;2.47;;
20067;SDS011;10194;50.824;7.134;2022-07-06T01:59:20;4.70;;;2.35;;
20067;SDS011;10194;50.824;7.134;2022-07-06T02:01:46;4.32;;;2.90;;
20067;SDS011;10194;50.824;7.134;2022-07-06T02:04:11;6.38;;;2.42;;
20067;SDS011;10194;50.824;7.134;2022-07-06T02:06:37;6.93;;;2.63;;
20067;SDS011;10194;50.824;7.134;2022-07-06T02:09:03;4.28;;;2.63;;
20067;SDS011;10194;50.824;7.134;2022-07-06T02:11:29;3.22;;;2.58;;
20067;SDS011;10194;50.824;7.134;2022-07-06T02:13:55;4.00;;;2.45;;
20067;SDS011;10194;50.824;7.134;2022-07-06T02:16:20;3.53;;;2.47;;
20067;SDS011;10194;50.824;7.134;2022-07-06T02:18:46;5.30;;;2.63;;
20067;SDS011;10194;50.824;7.134;2022-07-06T02:21:12;5.57;;;2.90;;
20067;SDS011;10194;50.824;7.134;2022-07-06T02:23:38;5.43;;;2.75;;
20067;SDS011;10194;50.824;7.134;2022-07-06T02:26:04;8.23;;;2.90;;
20067;SDS011;10194;50.824;7.134;2022-07-06T02:28:30;5.32;;;3.10;;
20067;SDS011;10194;50.824;7.134;2022-07-06T02:30:56;3.28;;;2.33;;
20067;SDS011;10194;50.824;7.134;2022-07-06T02:33:22;3.80;;;2.70;;
20067;SDS011;10194;50.824;7.134;2022-07-06T02:35:48;6.30;;;3.30;;
20067;SDS011;10194;50.824;7.134;2022-07-06T02:38:13;4.15;;;2.80;;
20067;SDS011;10194;50.824;7.134;2022-07-06T02:40:39;3.83;;;2.78;;
20067;SDS011;10194;50.824;7.134;2022-07-06T02:43:05;4.53;;;2.67;;
20067;SDS011;10194;50.824;7.134;2022-07-06T02:45:31;5.20;;;2.90;;
20067;SDS011;10194;50.824;7.134;2022-07-06T02:47:57;4.18;;;2.90;;
20067;SDS011;10194;50.824;7.134;2022-07-06T02:50:23;5.70;;;3.08;;
20067;SDS011;10194;50.824;7.134;2022-07-06T02:52:50;3.35;;;2.45;;
20067;SDS011;10194;50.824;7.134;2022-07-06T02:55:16;5.25;;;3.30;;
20067;SDS011;10194;50.824;7.134;2022-07-06T02:57:42;5.63;;;2.80;;
20067;SDS011;10194;50.824;7.134;2022-07-06T03:00:08;4.47;;;2.75;;
20067;SDS011;10194;50.824;7.134;2022-07-06T03:02:35;4.60;;;3.10;;
20067;SDS011;10194;50.824;7.134;2022-07-06T03:05:01;3.50;;;2.53;;
20067;SDS011;10194;50.824;7.134;2022-07-06T03:07:28;4.63;;;3.28;;
20067;SDS011;10194;50.824;7.134;2022-07-06T03:09:54;5.80;;;3.35;;
20067;SDS011;10194;50.824;7.134;2022-07-06T03:12:19;12.82;;;3.67;;
20067;SDS011;10194;50.824;7.134;2022-07-06T03:14:45;6.28;;;2.92;;
20067;SDS011;10194;50.824;7.134;2022-07-06T03:17:11;6.18;;;2.90;;
20067;SDS011;10194;50.824;7.134;2022-07-06T03:19:37;4.38;;;2.72;;
20067;SDS011;10194;50.824;7.134;2022-07-06T03:22:03;5.28;;;3.00;;
20067;SDS011;10194;50.824;7.134;2022-07-06T03:24:29;4.65;;;2.95;;
20067;SDS011;10194;50.824;7.134;2022-07-06T03:26:55;4.75;;;3.10;;
20067;SDS011;10194;50.824;7.134;2022-07-06T03:29:21;4.88;;;2.90;;
20067;SDS011;10194;50.824;7.134;2022-07-06T03:31:47;8.07;;;2.97;;
20067;SDS011;10194;50.824;7.134;2022-07-06T03:34:12;7.65;;;2.92;;
20067;SDS011;10194;50.824;7.134;2022-07-06T03:36:38;8.38;;;3.10;;
20067;SDS011;10194;50.824;7.134;2022-07-06T03:39:05;4.43;;;2.72;;
20067;SDS011;10194;50.824;7.134;2022-07-06T03:41:31;5.65;;;3.17;;
20067;SDS011;10194;50.824;7.134;2022-07-06T03:43:57;7.68;;;3.78;;
20067;SDS011;10194;50.824;7.134;2022-07-06T03:46:23;3.80;;;3.00;;
20067;SDS011;10194;50.824;7.134;2022-07-06T03:48:49;4.72;;;3.33;;
20067;SDS011;10194;50.824;7.134;2022-07-06T03:51:15;5.65;;;2.72;;
20067;SDS011;10194;50.824;7.134;2022-07-06T03:53:41;7.30;;;3.53;;
20067;SDS011;10194;50.824;7.134;2022-07-06T03:56:07;3.80;;;3.03;;
20067;SDS011;10194;50.824;7.134;2022-07-06T03:58:51;4.35;;;3.20;;
20067;SDS011;10194;50.824;7.134;2022-07-06T04:01:18;4.00;;;2.80;;
20067;SDS011;10194;50.824;7.134;2022-07-06T04:03:43;5.88;;;3.03;;
20067;SDS011;10194;50.824;7.134;2022-07-06T04:06:09;4.63;;;3.00;;
20067;SDS011;10194;50.824;7.134;2022-07-06T04:08:36;6.68;;;3.20;;
20067;SDS011;10194;50.824;7.134;2022-07-06T04:11:02;4.60;;;2.88;;
20067;SDS011;10194;50.824;7.134;2022-07-06T04:13:27;7.75;;;3.03;;
20067;SDS011;10194;50.824;7.134;2022-07-06T04:15:53;6.85;;;3.47;;
20067;SDS011;10194;50.824;7.134;2022-07-06T04:18:19;5.28;;;2.70;;
20067;SDS011;10194;50.824;7.134;2022-07-06T04:20:45;4.90;;;3.00;;
20067;SDS011;10194;50.824;7.134;2022-07-06T04:23:11;4.10;;;2.65;;
20067;SDS011;10194;50.824;7.134;2022-07-06T04:25:37;5.80;;;2.70;;
20067;SDS011;10194;50.824;7.134;2022-07-06T04:28:03;3.85;;;2.53;;
20067;SDS011;10194;50.824;7.134;2022-07-06T04:30:29;3.85;;;2.53;;
20067;SDS011;10194;50.824;7.134;2022-07-06T04:32:55;4.55;;;2.50;;
20067;SDS011;10194;50.824;7.134;2022-07-06T04:35:21;4.95;;;2.88;;
20067;SDS011;10194;50.824;7.134;2022-07-06T04:37:47;6.13;;;2.70;;
20067;SDS011;10194;50.824;7.134;2022-07-06T04:40:13;6.07;;;2.95;;
20067;SDS011;10194;50.824;7.134;2022-07-06T04:42:39;7.88;;;2.97;;
20067;SDS011;10194;50.824;7.134;2022-07-06T04:45:05;5.78;;;3.00;;
20067;SDS011;10194;50.824;7.134;2022-07-06T04:47:32;5.78;;;3.40;;
20067;SDS011;10194;50.824;7.134;2022-07-06T04:49:58;11.65;;;3.38;;
20067;SDS011;10194;50.824;7.134;2022-07-06T04:52:24;9.60;;;3.22;;
20067;SDS011;10194;50.824;7.134;2022-07-06T04:54:49;7.47;;;3.40;;
20067;SDS011;10194;50.824;7.134;2022-07-06T04:57:15;6.50;;;2.58;;
20067;SDS011;10194;50.824;7.134;2022-07-06T04:59:41;17.13;;;3.38;;
20067;SDS011;10194;50.824;7.134;2022-07-06T05:02:07;5.88;;;3.17;;
20067;SDS011;10194;50.824;7.134;2022-07-06T05:04:32;6.90;;;2.90;;
20067;SDS011;10194;50.824;7.134;2022-07-06T05:06:58;5.00;;;2.90;;
20067;SDS011;10194;50.824;7.134;2022-07-06T05:09:24;10.70;;;3.08;;
20067;SDS011;10194;50.824;7.134;2022-07-06T05:11:50;4.60;;;2.83;;
20067;SDS011;10194;50.824;7.134;2022-07-06T05:14:16;6.10;;;2.72;;
20067;SDS011;10194;50.824;7.134;2022-07-06T05:16:42;7.63;;;2.80;;
20067;SDS011;10194;50.824;7.134;2022-07-06T05:19:08;7.75;;;2.90;;
20067;SDS011;10194;50.824;7.134;2022-07-06T05:21:34;7.75;;;3.58;;
20067;SDS011;10194;50.824;7.134;2022-07-06T05:23:59;12.48;;;2.90;;
20067;SDS011;10194;50.824;7.134;2022-07-06T05:26:25;5.22;;;2.85;;
20067;SDS011;10194;50.824;7.134;2022-07-06T05:28:51;6.10;;;3.10;;
20067;SDS011;10194;50.824;7.134;2022-07-06T05:31:17;9.88;;;3.97;;
20067;SDS011;10194;50.824;7.134;2022-07-06T05:33:42;9.15;;;3.22;;
20067;SDS011;10194;50.824;7.134;2022-07-06T05:36:08;5.93;;;3.70;;
20067;SDS011;10194;50.824;7.134;2022-07-06T05:38:34;6.05;;;3.55;;
20067;SDS011;10194;50.824;7.134;2022-07-06T05:41:00;7.55;;;3.72;;
20067;SDS011;10194;50.824;7.134;2022-07-06T05:43:26;5.13;;;3.25;;
20067;SDS011;10194;50.824;7.134;2022-07-06T05:45:51;6.65;;;3.70;;
20067;SDS011;10194;50.824;7.134;2022-07-06T05:48:17;3.90;;;3.08;;
20067;SDS011;10194;50.824;7.134;2022-07-06T05:51:02;7.25;;;3.13;;
20067;SDS011;10194;50.824;7.134;2022-07-06T05:53:28;9.05;;;3.40;;
20067;SDS011;10194;50.824;7.134;2022-07-06T05:55:53;9.25;;;3.83;;
20067;SDS011;10194;50.824;7.134;2022-07-06T05:58:19;11.88;;;3.78;;
20067;SDS011;10194;50.824;7.134;2022-07-06T06:00:45;7.28;;;3.60;;
20067;SDS011;10194;50.824;7.134;2022-07-06T06:03:12;6.07;;;3.35;;
20067;SDS011;10194;50.824;7.134;2022-07-06T06:05:37;6.07;;;3.20;;
20067;SDS011;10194;50.824;7.134;2022-07-06T06:08:03;8.93;;;3.47;;
20067;SDS011;10194;50.824;7.134;2022-07-06T06:10:29;6.85;;;3.17;;
20067;SDS011;10194;50.824;7.134;2022-07-06T06:12:55;5.78;;;2.80;;
20067;SDS011;10194;50.824;7.134;2022-07-06T06:15:21;9.70;;;3.17;;
20067;SDS011;10194;50.824;7.134;2022-07-06T06:17:47;7.90;;;3.35;;
20067;SDS011;10194;50.824;7.134;2022-07-06T06:20:13;8.60;;;3.30;;
20067;SDS011;10194;50.824;7.134;2022-07-06T06:22:49;8.95;;;2.90;;
20067;SDS011;10194;50.824;7.134;2022-07-06T06:25:18;5.72;;;2.42;;
20067;SDS011;10194;50.824;7.134;2022-07-06T06:27:46;7.40;;;2.88;;
20067;SDS011;10194;50.824;7.134;2022-07-06T06:30:12;5.28;;;2.63;;
20067;SDS011;10194;50.824;7.134;2022-07-06T06:32:39;4.32;;;2.40;;
20067;SDS011;10194;50.824;7.134;2022-07-06T06:35:05;5.82;;;3.00;;
20067;SDS011;10194;50.824;7.134;2022-07-06T06:37:32;7.30;;;2.55;;
20067;SDS011;10194;50.824;7.134;2022-07-06T06:39:59;4.07;;;2.03;;
20067;SDS011;10194;50.824;7.134;2022-07-06T06:42:25;6.05;;;1.95;;
20067;SDS011;10194;50.824;7.134;2022-07-06T06:44:51;3.20;;;1.85;;
20067;SDS011;10194;50.824;7.134;2022-07-06T06:47:17;2.40;;;1.67;;
20067;SDS011;10194;50.824;7.134;2022-07-06T06:49:44;3.50;;;1.75;;
20067;SDS011;10194;50.824;7.134;2022-07-06T06:52:09;7.88;;;1.80;;
20067;SDS011;10194;50.824;7.134;2022-07-06T06:54:35;4.57;;;1.73;;
20067;SDS011;10194;50.824;7.134;2022-07-06T06:57:01;5.38;;;1.70;;
20067;SDS011;10194;50.824;7.134;2022-07-06T06:59:27;4.60;;;1.35;;
20067;SDS011;10194;50.824;7.134;2022-07-06T07:01:53;8.27;;;1.88;;
20067;SDS011;10194;50.824;7.134;2022-07-06T07:04:19;6.82;;;1.45;;
20067;SDS011;10194;50.824;7.134;2022-07-06T07:06:44;2.50;;;1.20;;
20067;SDS011;10194;50.824;7.134;2022-07-06T07:09:10;1.92;;;1.10;;
20067;SDS011;10194;50.824;7.134;2022-07-06T07:11:36;4.88;;;1.58;;
20067;SDS011;10194;50.824;7.134;2022-07-06T07:14:02;2.63;;;1.20;;
20067;SDS011;10194;50.824;7.134;2022-07-06T07:16:27;1.80;;;1.17;;
20067;SDS011;10194;50.824;7.134;2022-07-06T07:18:53;3.42;;;1.08;;
20067;SDS011;10194;50.824;7.134;2022-07-06T07:21:19;3.38;;;1.00;;
20067;SDS011;10194;50.824;7.134;2022-07-06T07:23:45;2.55;;;0.90;;
20067;SDS011;10194;50.824;7.134;2022-07-06T07:26:11;4.32;;;1.08;;
20067;SDS011;10194;50.824;7.134;2022-07-06T07:28:36;2.38;;;0.90;;
20067;SDS011;10194;50.824;7.134;2022-07-06T07:31:03;3.95;;;1.27;;
20067;SDS011;10194;50.824;7.134;2022-07-06T07:33:30;4.30;;;1.33;;
20067;SDS011;10194;50.824;7.134;2022-07-06T07:35:55;4.40;;;1.02;;
20067;SDS011;10194;50.824;7.134;2022-07-06T07:38:21;3.22;;;1.23;;
20067;SDS011;10194;50.824;7.134;2022-07-06T07:40:47;2.10;;;0.95;;
20067;SDS011;10194;50.824;7.134;2022-07-06T07:43:13;1.35;;;0.80;;
20067;SDS011;10194;50.824;7.134;2022-07-06T07:45:39;3.88;;;1.00;;
20067;SDS011;10194;50.824;7.134;2022-07-06T07:48:05;3.60;;;1.00;;
20067;SDS011;10194;50.824;7.134;2022-07-06T07:50:31;2.15;;;1.00;;
20067;SDS011;10194;50.824;7.134;2022-07-06T07:52:57;5.35;;;1.27;;
20067;SDS011;10194;50.824;7.134;2022-07-06T07:55:23;2.58;;;0.85;;
20067;SDS011;10194;50.824;7.134;2022-07-06T07:57:48;2.33;;;1.00;;
20067;SDS011;10194;50.824;7.134;2022-07-06T08:00:14;2.88;;;0.90;;
20067;SDS011;10194;50.824;7.134;2022-07-06T08:02:40;1.77;;;0.75;;
20067;SDS011;10194;50.824;7.134;2022-07-06T08:05:06;2.30;;;1.00;;
20067;SDS011;10194;50.824;7.134;2022-07-06T08:07:33;2.55;;;1.08;;
20067;SDS011;10194;50.824;7.134;2022-07-06T08:09:59;2.42;;;0.95;;
20067;SDS011;10194;50.824;7.134;2022-07-06T08:12:24;2.92;;;1.10;;
20067;SDS011;10194;50.824;7.134;2022-07-06T08:14:51;2.03;;;0.82;;
20067;SDS011;10194;50.824;7.134;2022-07-06T08:17:17;2.35;;;0.98;;
20067;SDS011;10194;50.824;7.134;2022-07-06T08:19:42;2.78;;;0.95;;
20067;SDS011;10194;50.824;7.134;2022-07-06T08:22:08;3.08;;;1.10;;
20067;SDS011;10194;50.824;7.134;2022-07-06T08:24:34;3.53;;;1.00;;
20067;SDS011;10194;50.824;7.134;2022-07-06T08:27:00;1.38;;;0.90;;
20067;SDS011;10194;50.824;7.134;2022-07-06T08:29:28;5.40;;;1.00;;
20067;SDS011;10194;50.824;7.134;2022-07-06T08:31:55;1.73;;;0.88;;
20067;SDS011;10194;50.824;7.134;2022-07-06T08:34:21;6.07;;;1.23;;
20067;SDS011;10194;50.824;7.134;2022-07-06T08:36:47;4.55;;;1.05;;
20067;SDS011;10194;50.824;7.134;2022-07-06T08:39:13;3.38;;;1.05;;
20067;SDS011;10194;50.824;7.134;2022-07-06T08:41:40;2.00;;;1.00;;
20067;SDS011;10194;50.824;7.134;2022-07-06T08:44:09;3.83;;;1.27;;
20067;SDS011;10194;50.824;7.134;2022-07-06T08:46:39;3.03;;;1.10;;
20067;SDS011;10194;50.824;7.134;2022-07-06T08:49:06;2.03;;;1.10;;
20067;SDS011;10194;50.824;7.134;2022-07-06T08:51:34;2.53;;;1.02;;
20067;SDS011;10194;50.824;7.134;2022-07-06T08:54:04;3.03;;;1.08;;
20067;SDS011;10194;50.824;7.134;2022-07-06T08:56:31;5.03;;;1.30;;
20067;SDS011;10194;50.824;7.134;2022-07-06T08:58:57;2.47;;;1.08;;
20067;SDS011;10194;50.824;7.134;2022-07-06T09:01:23;1.58;;;1.13;;
20067;SDS011;10194;50.824;7.134;2022-07-06T09:03:49;2.35;;;1.00;;
20067;SDS011;10194;50.824;7.134;2022-07-06T09:06:25;1.35;;;1.10;;
20067;SDS011;10194;50.824;7.134;2022-07-06T09:08:56;4.22;;;1.05;;
20067;SDS011;10194;50.824;7.134;2022-07-06T09:11:22;2.83;;;1.20;;
20067;SDS011;10194;50.824;7.134;2022-07-06T09:13:50;1.58;;;0.88;;
20067;SDS011;10194;50.824;7.134;2022-07-06T09:16:17;1.80;;;0.95;;
20067;SDS011;10194;50.824;7.134;2022-07-06T09:18:50;2.70;;;0.95;;
20067;SDS011;10194;50.824;7.134;2022-07-06T09:21:26;1.55;;;0.80;;
20067;SDS011;10194;50.824;7.134;2022-07-06T09:23:57;2.88;;;1.05;;
20067;SDS011;10194;50.824;7.134;2022-07-06T09:26:29;2.00;;;1.00;;
20067;SDS011;10194;50.824;7.134;2022-07-06T09:28:56;1.60;;;0.90;;
20067;SDS011;10194;50.824;7.134;2022-07-06T09:31:24;1.48;;;0.90;;
20067;SDS011;10194;50.824;7.134;2022-07-06T09:33:53;2.70;;;0.93;;
20067;SDS011;10194;50.824;7.134;2022-07-06T09:36:40;3.10;;;1.00;;
20067;SDS011;10194;50.824;7.134;2022-07-06T09:39:24;2.53;;;0.93;;
20067;SDS011;10194;50.824;7.134;2022-07-06T09:41:53;3.40;;;0.90;;
20067;SDS011;10194;50.824;7.134;2022-07-06T09:44:25;2.10;;;1.10;;
20067;SDS011;10194;50.824;7.134;2022-07-06T09:46:57;2.47;;;0.95;;
20067;SDS011;10194;50.824;7.134;2022-07-06T09:49:25;1.67;;;0.98;;
20067;SDS011;10194;50.824;7.134;2022-07-06T09:51:53;4.10;;;1.17;;
20067;SDS011;10194;50.824;7.134;2022-07-06T09:54:22;3.25;;;0.80;;
20067;SDS011;10194;50.824;7.134;2022-07-06T09:56:49;3.30;;;1.05;;
20067;SDS011;10194;50.824;7.134;2022-07-06T09:59:16;2.22;;;1.20;;
20067;SDS011;10194;50.824;7.134;2022-07-06T10:01:46;2.10;;;0.98;;
20067;SDS011;10194;50.824;7.134;2022-07-06T10:04:19;1.90;;;1.00;;
20067;SDS011;10194;50.824;7.134;2022-07-06T10:06:46;4.47;;;1.10;;
20067;SDS011;10194;50.824;7.134;2022-07-06T10:09:13;3.45;;;1.10;;
20067;SDS011;10194;50.824;7.134;2022-07-06T10:11:40;1.88;;;1.40;;
20067;SDS011;10194;50.824;7.134;2022-07-06T10:14:15;2.50;;;1.20;;
20067;SDS011;10194;50.824;7.134;2022-07-06T10:16:59;1.77;;;1.27;;
20067;SDS011;10194;50.824;7.134;2022-07-06T10:19:28;5.28;;;1.73;;
20067;SDS011;10194;50.824;7.134;2022-07-06T10:21:56;2.17;;;1.00;;
20067;SDS011;10194;50.824;7.134;2022-07-06T10:24:25;2.22;;;1.17;;
20067;SDS011;10194;50.824;7.134;2022-07-06T10:26:53;2.50;;;1.15;;
20067;SDS011;10194;50.824;7.134;2022-07-06T10:29:19;1.67;;;0.98;;
20067;SDS011;10194;50.824;7.134;2022-07-06T10:31:47;1.35;;;1.00;;
20067;SDS011;10194;50.824;7.134;2022-07-06T10:34:17;2.00;;;1.38;;
20067;SDS011;10194;50.824;7.134;2022-07-06T10:36:48;2.75;;;1.50;;
20067;SDS011;10194;50.824;7.134;2022-07-06T10:39:31;1.20;;;1.10;;
20067;SDS011;10194;50.824;7.134;2022-07-06T10:43:21;1.42;;;0.90;;
20067;SDS011;10194;50.824;7.134;2022-07-06T10:50:36;0.85;;;0.70;;
20067;SDS011;10194;50.824;7.134;2022-07-06T10:53:11;4.88;;;1.23;;
20067;SDS011;10194;50.824;7.134;2022-07-06T10:55:39;2.65;;;0.88;;
20067;SDS011;10194;50.824;7.134;2022-07-06T10:58:12;2.40;;;0.75;;
20067;SDS011;10194;50.824;7.134;2022-07-06T11:03:32;1.20;;;0.70;;
20067;SDS011;10194;50.824;7.134;2022-07-06T11:08:47;1.13;;;0.70;;
20067;SDS011;10194;50.824;7.134;2022-07-06T11:14:13;0.80;;;0.80;;
20067;SDS011;10194;50.824;7.134;2022-07-06T11:19:12;1.73;;;1.05;;
20067;SDS011;10194;50.824;7.134;2022-07-06T11:21:43;1.95;;;0.80;;
20067;SDS011;10194;50.824;7.134;2022-07-06T11:24:18;2.53;;;1.08;;
20067;SDS011;10194;50.824;7.134;2022-07-06T11:26:50;5.68;;;1.20;;
20067;SDS011;10194;50.824;7.134;2022-07-06T11:29:18;1.88;;;1.20;;
20067;SDS011;10194;50.824;7.134;2022-07-06T11:31:46;1.75;;;0.88;;
20067;SDS011;10194;50.824;7.134;2022-07-06T11:34:19;1.33;;;1.00;;
20067;SDS011;10194;50.824;7.134;2022-07-06T11:36:46;2.72;;;1.13;;
20067;SDS011;10194;50.824;7.134;2022-07-06T11:39:13;1.20;;;1.10;;
20067;SDS011;10194;50.824;7.134;2022-07-06T11:41:39;2.72;;;1.00;;
20067;SDS011;10194;50.824;7.134;2022-07-06T11:44:06;3.55;;;1.13;;
20067;SDS011;10194;50.824;7.134;2022-07-06T11:46:33;2.70;;;1.23;;
20067;SDS011;10194;50.824;7.134;2022-07-06T11:51:31;2.78;;;1.15;;
20067;SDS011;10194;50.824;7.134;2022-07-06T11:54:13;1.30;;;0.98;;
20067;SDS011;10194;50.824;7.134;2022-07-06T11:56:55;2.10;;;1.20;;
20067;SDS011;10194;50.824;7.134;2022-07-06T11:59:27;2.33;;;1.10;;
20067;SDS011;10194;50.824;7.134;2022-07-06T12:04:36;2.25;;;1.33;;
20067;SDS011;10194;50.824;7.134;2022-07-06T12:07:04;3.28;;;1.35;;
20067;SDS011;10194;50.824;7.134;2022-07-06T12:09:37;4.25;;;1.38;;
20067;SDS011;10194;50.824;7.134;2022-07-06T12:12:05;2.60;;;1.50;;
20067;SDS011;10194;50.824;7.134;2022-07-06T12:14:34;2.25;;;1.25;;
20067;SDS011;10194;50.824;7.134;2022-07-06T12:17:06;1.73;;;1.20;;
20067;SDS011;10194;50.824;7.134;2022-07-06T12:19:36;2.38;;;1.30;;
20067;SDS011;10194;50.824;7.134;2022-07-06T12:22:03;3.38;;;1.77;;
20067;SDS011;10194;50.824;7.134;2022-07-06T12:24:31;2.28;;;1.55;;
20067;SDS011;10194;50.824;7.134;2022-07-06T12:27:12;5.13;;;1.80;;
20067;SDS011;10194;50.824;7.134;2022-07-06T12:29:41;2.13;;;1.52;;
20067;SDS011;10194;50.824;7.134;2022-07-06T12:32:13;2.45;;;1.63;;
20067;SDS011;10194;50.824;7.134;2022-07-06T12:34:44;5.38;;;2.00;;
20067;SDS011;10194;50.824;7.134;2022-07-06T12:37:10;2.92;;;1.60;;
20067;SDS011;10194;50.824;7.134;2022-07-06T12:39:41;2.90;;;1.40;;
20067;SDS011;10194;50.824;7.134;2022-07-06T12:42:09;3.70;;;1.80;;
20067;SDS011;10194;50.824;7.134;2022-07-06T12:44:45;3.47;;;1.92;;
20067;SDS011;10194;50.824;7.134;2022-07-06T12:47:17;2.30;;;1.75;;
20067;SDS011;10194;50.824;7.134;2022-07-06T12:49:46;3.85;;;1.52;;
20067;SDS011;10194;50.824;7.134;2022-07-06T12:52:13;1.98;;;1.40;;
20067;SDS011;10194;50.824;7.134;2022-07-06T12:54:41;2.70;;;1.38;;
20067;SDS011;10194;50.824;7.134;2022-07-06T12:59:55;2.17;;;1.25;;
20067;SDS011;10194;50.824;7.134;2022-07-06T13:02:26;1.58;;;1.17;;
20067;SDS011;10194;50.824;7.134;2022-07-06T13:05:07;3.35;;;1.10;;
20067;SDS011;10194;50.824;7.134;2022-07-06T13:07:36;2.90;;;0.95;;
20067;SDS011;10194;50.824;7.134;2022-07-06T13:10:05;2.00;;;1.15;;
20067;SDS011;10194;50.824;7.134;2022-07-06T13:12:33;2.30;;;1.20;;
20067;SDS011;10194;50.824;7.134;2022-07-06T13:15:00;1.42;;;1.23;;
20067;SDS011;10194;50.824;7.134;2022-07-06T13:17:26;2.05;;;1.10;;
20067;SDS011;10194;50.824;7.134;2022-07-06T13:19:52;1.52;;;1.00;;
20067;SDS011;10194;50.824;7.134;2022-07-06T13:22:18;2.25;;;0.90;;
20067;SDS011;10194;50.824;7.134;2022-07-06T13:24:44;1.25;;;1.10;;
20067;SDS011;10194;50.824;7.134;2022-07-06T13:27:10;5.38;;;1.17;;
20067;SDS011;10194;50.824;7.134;2022-07-06T13:29:37;1.50;;;0.98;;
20067;SDS011;10194;50.824;7.134;2022-07-06T13:32:03;1.33;;;0.90;;
20067;SDS011;10194;50.824;7.134;2022-07-06T13:34:30;2.05;;;1.30;;
20067;SDS011;10194;50.824;7.134;2022-07-06T13:36:57;3.22;;;1.13;;
20067;SDS011;10194;50.824;7.134;2022-07-06T13:39:22;1.58;;;1.10;;
20067;SDS011;10194;50.824;7.134;2022-07-06T13:41:48;1.25;;;1.10;;
20067;SDS011;10194;50.824;7.134;2022-07-06T13:44:14;2.15;;;1.30;;
20067;SDS011;10194;50.824;7.134;2022-07-06T13:46:41;4.53;;;1.20;;
20067;SDS011;10194;50.824;7.134;2022-07-06T13:49:10;3.10;;;1.20;;
20067;SDS011;10194;50.824;7.134;2022-07-06T13:51:36;3.72;;;1.05;;
20067;SDS011;10194;50.824;7.134;2022-07-06T13:54:02;2.28;;;1.13;;
20067;SDS011;10194;50.824;7.134;2022-07-06T13:56:28;1.10;;;1.00;;
20067;SDS011;10194;50.824;7.134;2022-07-06T13:58:54;5.30;;;1.67;;
20067;SDS011;10194;50.824;7.134;2022-07-06T14:01:20;3.63;;;1.42;;
20067;SDS011;10194;50.824;7.134;2022-07-06T14:03:47;1.92;;;1.05;;
20067;SDS011;10194;50.824;7.134;2022-07-06T14:06:13;1.48;;;1.10;;
20067;SDS011;10194;50.824;7.134;2022-07-06T14:08:40;5.28;;;1.10;;
20067;SDS011;10194;50.824;7.134;2022-07-06T14:11:06;2.05;;;1.10;;
20067;SDS011;10194;50.824;7.134;2022-07-06T14:13:33;3.30;;;1.10;;
20067;SDS011;10194;50.824;7.134;2022-07-06T14:16:00;3.53;;;1.00;;
20067;SDS011;10194;50.824;7.134;2022-07-06T14:18:26;1.80;;;1.30;;
20067;SDS011;10194;50.824;7.134;2022-07-06T14:20:52;4.03;;;1.50;;
20067;SDS011;10194;50.824;7.134;2022-07-06T14:23:19;4.38;;;1.30;;
20067;SDS011;10194;50.824;7.134;2022-07-06T14:25:46;4.13;;;1.25;;
20067;SDS011;10194;50.824;7.134;2022-07-06T14:28:13;2.58;;;1.38;;
20067;SDS011;10194;50.824;7.134;2022-07-06T14:30:40;1.77;;;1.40;;
20067;SDS011;10194;50.824;7.134;2022-07-06T14:33:07;4.25;;;1.20;;
20067;SDS011;10194;50.824;7.134;2022-07-06T14:38:01;2.72;;;1.20;;
20067;SDS011;10194;50.824;7.134;2022-07-06T14:40:28;2.53;;;1.25;;
20067;SDS011;10194;50.824;7.134;2022-07-06T14:42:55;1.17;;;1.08;;
20067;SDS011;10194;50.824;7.134;2022-07-06T14:45:21;4.40;;;1.10;;
20067;SDS011;10194;50.824;7.134;2022-07-06T14:47:46;2.38;;;1.00;;
20067;SDS011;10194;50.824;7.134;2022-07-06T14:50:12;2.92;;;1.10;;
20067;SDS011;10194;50.824;7.134;2022-07-06T14:52:38;2.28;;;1.13;;
20067;SDS011;10194;50.824;7.134;2022-07-06T14:55:04;1.80;;;1.15;;
20067;SDS011;10194;50.824;7.134;2022-07-06T14:57:30;1.70;;;1.10;;
20067;SDS011;10194;50.824;7.134;2022-07-06T14:59:56;6.88;;;1.48;;
20067;SDS011;10194;50.824;7.134;2022-07-06T15:02:22;3.80;;;1.15;;
20067;SDS011;10194;50.824;7.134;2022-07-06T15:04:48;3.17;;;1.30;;
20067;SDS011;10194;50.824;7.134;2022-07-06T15:07:14;1.95;;;1.35;;
20067;SDS011;10194;50.824;7.134;2022-07-06T15:09:40;1.90;;;1.30;;
20067;SDS011;10194;50.824;7.134;2022-07-06T15:12:06;4.00;;;1.30;;
20067;SDS011;10194;50.824;7.134;2022-07-06T15:14:33;2.00;;;1.40;;
20067;SDS011;10194;50.824;7.134;2022-07-06T15:16:58;4.20;;;1.42;;
20067;SDS011;10194;50.824;7.134;2022-07-06T15:19:24;3.33;;;1.30;;